Time;durP1;ratioP1;P1;durP2;ratioP2;P2;SDS_P1;SDS_P2;PMS_P1;PMS_P2;Temp;Humidity;BMP_temperature;BMP_pressure;BME280_temperature;BME280_humidity;BME280_pressure;Samples;Min_cycle;Max_cycle;Signal;HPM_P1;HPM_P2
2023/06/16 00:00:50;;;;;;;7.20;4.68;;;;;;;;;;4347007;32;20373;-68
2023/06/16 00:03:15;;;;;;;9.05;4.37;;;;;;;;;;4352444;32;20061;-68
2023/06/16 00:05:42;;;;;;;9.48;4.35;;;;;;;;;;4361893;32;20424;-68
2023/06/16 00:08:09;;;;;;;9.93;4.50;;;;;;;;;;4360499;32;20039;-69
2023/06/16 00:10:34;;;;;;;6.68;4.03;;;;;;;;;;4361005;32;20026;-68
2023/06/16 00:12:59;;;;;;;5.28;4.18;;;;;;;;;;4362099;32;20165;-69
2023/06/16 00:15:24;;;;;;;6.90;4.28;;;;;;;;;;4346554;32;20047;-68
2023/06/16 00:17:49;;;;;;;7.82;4.43;;;;;;;;;;4346199;32;20094;-69
2023/06/16 00:20:15;;;;;;;5.40;4.50;;;;;;;;;;4347130;33;20027;-69
2023/06/16 00:22:41;;;;;;;7.62;4.72;;;;;;;;;;4350471;32;20162;-68
2023/06/16 00:25:07;;;;;;;5.78;4.00;;;;;;;;;;4344040;33;20393;-69
2023/06/16 00:27:32;;;;;;;10.18;4.68;;;;;;;;;;4347013;33;20090;-68
2023/06/16 00:29:57;;;;;;;8.38;4.93;;;;;;;;;;4347099;33;20027;-67
2023/06/16 00:32:22;;;;;;;6.57;4.63;;;;;;;;;;4346657;33;20032;-67
2023/06/16 00:34:48;;;;;;;7.37;4.70;;;;;;;;;;4346690;33;20502;-69
2023/06/16 00:37:13;;;;;;;7.47;5.60;;;;;;;;;;4345899;33;20171;-69
2023/06/16 00:39:38;;;;;;;6.63;4.67;;;;;;;;;;4344153;33;20032;-68
2023/06/16 00:42:03;;;;;;;12.77;4.90;;;;;;;;;;4346166;33;20147;-68
2023/06/16 00:44:28;;;;;;;5.97;4.65;;;;;;;;;;4345709;33;20178;-69
2023/06/16 00:46:54;;;;;;;8.77;4.53;;;;;;;;;;4345843;33;20103;-68
2023/06/16 00:49:19;;;;;;;7.57;4.50;;;;;;;;;;4346920;33;20440;-68
2023/06/16 00:51:46;;;;;;;9.18;4.60;;;;;;;;;;4345197;33;20370;-68
2023/06/16 00:54:15;;;;;;;7.07;5.05;;;;;;;;;;4345021;33;20035;-69
2023/06/16 00:56:41;;;;;;;7.40;4.72;;;;;;;;;;4346977;33;20109;-69
2023/06/16 00:59:07;;;;;;;8.18;4.90;;;;;;;;;;4344278;33;20031;-69
2023/06/16 01:01:34;;;;;;;10.35;4.60;;;;;;;;;;4345484;33;20504;-69
2023/06/16 01:03:59;;;;;;;10.75;5.78;;;;;;;;;;4346547;33;20039;-69
2023/06/16 01:06:33;;;;;;;8.10;4.22;;;;;;;;;;4345477;33;20131;-69
2023/06/16 01:09:01;;;;;;;8.95;5.00;;;;;;;;;;4345503;33;20118;-69
2023/06/16 01:11:32;;;;;;;6.53;4.72;;;;;;;;;;4345694;33;20082;-69
2023/06/16 01:14:07;;;;;;;6.78;4.82;;;;;;;;;;4346798;33;20130;-69
2023/06/16 01:16:33;;;;;;;8.55;5.62;;;;;;;;;;4343933;33;20459;-69
2023/06/16 01:19:02;;;;;;;7.40;4.65;;;;;;;;;;4345925;33;20032;-70
2023/06/16 01:21:27;;;;;;;6.40;4.85;;;;;;;;;;4346059;33;20028;-69
2023/06/16 01:24:04;;;;;;;9.43;5.35;;;;;;;;;;4346106;33;20028;-69
2023/06/16 01:26:34;;;;;;;8.65;4.50;;;;;;;;;;4343828;33;20039;-68
2023/06/16 01:29:00;;;;;;;8.38;5.50;;;;;;;;;;4346522;33;20365;-69
2023/06/16 01:31:28;;;;;;;7.25;5.00;;;;;;;;;;4346437;33;20089;-70
2023/06/16 01:33:53;;;;;;;9.45;4.78;;;;;;;;;;4345546;33;20066;-69
2023/06/16 01:36:19;;;;;;;10.23;5.82;;;;;;;;;;4347423;33;20047;-68
2023/06/16 01:38:45;;;;;;;9.02;4.78;;;;;;;;;;4347361;33;20039;-67
2023/06/16 01:41:11;;;;;;;8.50;4.80;;;;;;;;;;4345398;33;20117;-67
2023/06/16 01:43:37;;;;;;;11.30;4.90;;;;;;;;;;4344822;33;20031;-68
2023/06/16 01:46:03;;;;;;;7.22;4.90;;;;;;;;;;4345311;33;20105;-69
2023/06/16 01:48:28;;;;;;;6.15;4.87;;;;;;;;;;4345289;33;20040;-69
2023/06/16 01:50:54;;;;;;;11.98;5.78;;;;;;;;;;4347894;33;20463;-69
2023/06/16 01:53:19;;;;;;;8.23;5.97;;;;;;;;;;4348005;33;20040;-68
2023/06/16 01:55:51;;;;;;;9.50;5.65;;;;;;;;;;4349464;33;20081;-68
2023/06/16 01:58:17;;;;;;;12.57;5.53;;;;;;;;;;4349237;33;20074;-68
2023/06/16 02:01:04;;;;;;;8.02;4.80;;;;;;;;;;4346322;33;20062;-68
2023/06/16 02:03:29;;;;;;;;;;;;;;;;;;4342668;33;20057;-69
2023/06/16 02:05:58;;;;;;;7.73;4.53;;;;;;;;;;4348041;33;19951;-69
2023/06/16 02:08:25;;;;;;;7.75;4.75;;;;;;;;;;4348683;33;20025;-69
2023/06/16 02:10:50;;;;;;;7.93;5.60;;;;;;;;;;4346524;33;20220;-69
2023/06/16 02:13:16;;;;;;;9.95;4.75;;;;;;;;;;4347839;33;20035;-67
2023/06/16 02:15:41;;;;;;;8.48;5.12;;;;;;;;;;4347805;33;20085;-67
2023/06/16 02:18:09;;;;;;;8.07;5.10;;;;;;;;;;4349207;32;20418;-69
2023/06/16 02:20:34;;;;;;;9.18;5.25;;;;;;;;;;4353440;32;20140;-68
2023/06/16 02:22:59;;;;;;;9.55;4.25;;;;;;;;;;4355534;32;20067;-68
2023/06/16 02:25:25;;;;;;;7.53;4.75;;;;;;;;;;4346865;33;20172;-68
2023/06/16 02:27:50;;;;;;;7.05;5.03;;;;;;;;;;4347787;32;20071;-68
2023/06/16 02:30:16;;;;;;;8.82;5.90;;;;;;;;;;4359538;32;20083;-68
2023/06/16 02:32:41;;;;;;;11.60;4.90;;;;;;;;;;4350551;33;20035;-68
2023/06/16 02:35:07;;;;;;;10.95;5.95;;;;;;;;;;4347370;33;20354;-68
2023/06/16 02:37:35;;;;;;;9.13;5.03;;;;;;;;;;4348765;32;20097;-69
2023/06/16 02:40:01;;;;;;;12.90;4.57;;;;;;;;;;4347224;33;20067;-68
2023/06/16 02:42:26;;;;;;;10.18;5.15;;;;;;;;;;4347385;33;20090;-68
2023/06/16 02:44:52;;;;;;;8.00;4.82;;;;;;;;;;4337619;32;20062;-68
2023/06/16 02:47:17;;;;;;;4.90;4.07;;;;;;;;;;4348373;33;20078;-68
2023/06/16 02:49:42;;;;;;;8.20;4.85;;;;;;;;;;4363686;32;20547;-68
2023/06/16 02:52:08;;;;;;;8.77;4.90;;;;;;;;;;4362344;32;20031;-68
2023/06/16 02:54:33;;;;;;;6.60;5.30;;;;;;;;;;4363272;32;20043;-69
2023/06/16 02:56:58;;;;;;;6.70;5.40;;;;;;;;;;4362636;32;20397;-69
2023/06/16 02:59:24;;;;;;;11.37;5.40;;;;;;;;;;4362404;32;20124;-69
2023/06/16 03:01:49;;;;;;;9.98;5.60;;;;;;;;;;4360097;32;20489;-69
2023/06/16 03:04:14;;;;;;;8.13;5.50;;;;;;;;;;4361594;32;20031;-69
2023/06/16 03:06:44;;;;;;;9.40;5.50;;;;;;;;;;4360638;32;20067;-68
2023/06/16 03:09:10;;;;;;;13.27;5.35;;;;;;;;;;4360614;33;20028;-70
2023/06/16 03:11:35;;;;;;;10.77;5.57;;;;;;;;;;4361674;32;20060;-68
2023/06/16 03:14:00;;;;;;;6.95;4.85;;;;;;;;;;4363128;32;20070;-68
2023/06/16 03:16:27;;;;;;;9.48;5.57;;;;;;;;;;4360786;32;20035;-67
2023/06/16 03:18:52;;;;;;;7.05;4.90;;;;;;;;;;4362016;32;20050;-69
2023/06/16 03:21:18;;;;;;;11.25;5.40;;;;;;;;;;4361811;32;20388;-68
2023/06/16 03:23:44;;;;;;;5.47;4.57;;;;;;;;;;4361135;32;20429;-69
2023/06/16 03:26:09;;;;;;;10.57;5.28;;;;;;;;;;4360151;32;20043;-69
2023/06/16 03:28:35;;;;;;;8.43;5.10;;;;;;;;;;4346396;33;20054;-69
2023/06/16 03:31:00;;;;;;;9.98;4.95;;;;;;;;;;4347552;33;20129;-69
2023/06/16 03:33:26;;;;;;;7.10;5.03;;;;;;;;;;4357606;32;20366;-69
2023/06/16 03:35:51;;;;;;;5.93;4.80;;;;;;;;;;4347265;33;20151;-69
2023/06/16 03:38:16;;;;;;;7.67;4.77;;;;;;;;;;4348057;33;20397;-69
2023/06/16 03:40:42;;;;;;;9.00;4.50;;;;;;;;;;4347409;33;20158;-69
2023/06/16 03:43:07;;;;;;;7.40;4.75;;;;;;;;;;4346879;33;20090;-69
2023/06/16 03:45:32;;;;;;;13.77;4.78;;;;;;;;;;4346259;32;20101;-69
2023/06/16 03:47:57;;;;;;;9.75;3.83;;;;;;;;;;4347983;33;20090;-69
2023/06/16 03:50:23;;;;;;;10.43;4.72;;;;;;;;;;4347964;33;20456;-69
2023/06/16 03:52:48;;;;;;;11.12;5.50;;;;;;;;;;4347766;33;20054;-69
2023/06/16 03:55:14;;;;;;;8.43;4.80;;;;;;;;;;4348030;33;20105;-69
2023/06/16 03:57:39;;;;;;;10.35;6.50;;;;;;;;;;4346623;33;20497;-71
2023/06/16 04:00:08;;;;;;;7.65;5.15;;;;;;;;;;4346791;33;20023;-69
2023/06/16 04:02:33;;;;;;;7.28;4.95;;;;;;;;;;4346042;33;20032;-69
2023/06/16 04:05:00;;;;;;;16.10;5.20;;;;;;;;;;4357879;32;20031;-69
2023/06/16 04:07:26;;;;;;;7.50;4.60;;;;;;;;;;4347287;33;20035;-69
2023/06/16 04:09:51;;;;;;;9.15;4.87;;;;;;;;;;4347323;33;20074;-69
2023/06/16 04:12:16;;;;;;;9.15;4.72;;;;;;;;;;4346889;33;20481;-68
2023/06/16 04:14:41;;;;;;;7.03;4.47;;;;;;;;;;4346672;33;20070;-68
2023/06/16 04:17:07;;;;;;;12.43;5.27;;;;;;;;;;4346970;33;20357;-69
2023/06/16 04:19:32;;;;;;;8.43;5.20;;;;;;;;;;4346506;33;20150;-68
2023/06/16 04:21:58;;;;;;;7.62;5.22;;;;;;;;;;4350450;32;20143;-69
2023/06/16 04:24:23;;;;;;;8.10;4.60;;;;;;;;;;4345103;32;20123;-69
2023/06/16 04:26:49;;;;;;;10.60;4.93;;;;;;;;;;4340403;33;20350;-68
2023/06/16 04:29:14;;;;;;;15.10;5.50;;;;;;;;;;4331783;33;20220;-68
2023/06/16 04:31:41;;;;;;;10.60;5.70;;;;;;;;;;4330656;33;20040;-68
2023/06/16 04:34:06;;;;;;;9.13;4.82;;;;;;;;;;4332197;33;20043;-69
2023/06/16 04:36:32;;;;;;;8.03;4.90;;;;;;;;;;4331567;33;20032;-69
2023/06/16 04:39:00;;;;;;;9.17;5.23;;;;;;;;;;4331685;33;20129;-69
2023/06/16 04:41:25;;;;;;;9.43;5.12;;;;;;;;;;4330616;33;20133;-68
2023/06/16 04:43:50;;;;;;;9.02;5.07;;;;;;;;;;4334367;33;20406;-68
2023/06/16 04:46:16;;;;;;;9.88;4.97;;;;;;;;;;4345899;33;20089;-68
2023/06/16 04:48:41;;;;;;;19.33;5.45;;;;;;;;;;4345619;33;20082;-69
2023/06/16 04:51:07;;;;;;;9.85;5.53;;;;;;;;;;4345920;33;20066;-69
2023/06/16 04:53:32;;;;;;;8.73;5.32;;;;;;;;;;4346660;33;20036;-69
2023/06/16 04:55:57;;;;;;;6.90;5.20;;;;;;;;;;4344508;33;20425;-69
2023/06/16 04:58:22;;;;;;;13.73;6.20;;;;;;;;;;4344250;33;20027;-69
2023/06/16 05:00:47;;;;;;;13.17;5.73;;;;;;;;;;4346218;33;20024;-69
2023/06/16 05:03:13;;;;;;;6.28;5.03;;;;;;;;;;4345115;33;20183;-68
2023/06/16 05:05:38;;;;;;;10.45;6.07;;;;;;;;;;4346134;33;20031;-68
2023/06/16 05:08:03;;;;;;;7.93;5.40;;;;;;;;;;4350077;33;20057;-68
2023/06/16 05:10:28;;;;;;;18.60;5.50;;;;;;;;;;4345183;33;20051;-67
2023/06/16 05:12:54;;;;;;;12.73;5.07;;;;;;;;;;4346466;33;20035;-69
2023/06/16 05:15:19;;;;;;;10.43;6.12;;;;;;;;;;4345223;33;20151;-69
2023/06/16 05:17:44;;;;;;;14.50;6.40;;;;;;;;;;4345281;33;20109;-68
2023/06/16 05:20:10;;;;;;;10.67;6.03;;;;;;;;;;4346790;32;20404;-67
2023/06/16 05:22:35;;;;;;;8.98;5.35;;;;;;;;;;4346272;33;20128;-68
2023/06/16 05:25:00;;;;;;;8.32;5.30;;;;;;;;;;4340874;33;20083;-68
2023/06/16 05:27:25;;;;;;;10.65;4.95;;;;;;;;;;4333531;33;20055;-69
2023/06/16 05:29:51;;;;;;;8.88;4.80;;;;;;;;;;4334642;33;20070;-68
2023/06/16 05:32:17;;;;;;;10.65;5.45;;;;;;;;;;4333460;33;20040;-67
2023/06/16 05:34:42;;;;;;;9.18;5.00;;;;;;;;;;4333443;33;20373;-68
2023/06/16 05:37:07;;;;;;;11.38;5.57;;;;;;;;;;4334761;33;20438;-67
2023/06/16 05:39:32;;;;;;;12.57;5.77;;;;;;;;;;4335148;33;20315;-69
2023/06/16 05:41:57;;;;;;;10.02;5.70;;;;;;;;;;4334504;33;20121;-69
2023/06/16 05:44:23;;;;;;;11.77;5.40;;;;;;;;;;4326738;33;20032;-68
2023/06/16 05:46:48;;;;;;;5.43;4.57;;;;;;;;;;4320088;33;20151;-69
2023/06/16 05:49:13;;;;;;;9.82;5.40;;;;;;;;;;4325312;33;20062;-68
2023/06/16 05:51:38;;;;;;;10.32;5.55;;;;;;;;;;4333142;33;20044;-68
2023/06/16 05:54:03;;;;;;;6.17;4.97;;;;;;;;;;4332476;33;20036;-68
2023/06/16 05:56:28;;;;;;;13.80;5.63;;;;;;;;;;4334065;33;20572;-68
2023/06/16 05:58:54;;;;;;;9.88;6.37;;;;;;;;;;4332488;33;20151;-69
2023/06/16 06:01:19;;;;;;;12.20;5.53;;;;;;;;;;4333730;33;20137;-68
2023/06/16 06:03:46;;;;;;;14.32;5.87;;;;;;;;;;4331116;33;20160;-69
2023/06/16 06:06:12;;;;;;;8.27;5.35;;;;;;;;;;4332967;33;20093;-68
2023/06/16 06:08:37;;;;;;;9.40;6.00;;;;;;;;;;4332336;33;20419;-69
2023/06/16 06:11:04;;;;;;;9.90;6.90;;;;;;;;;;4330767;33;20036;-69
2023/06/16 06:13:30;;;;;;;10.57;7.65;;;;;;;;;;4333281;33;20052;-70
2023/06/16 06:15:55;;;;;;;10.48;6.05;;;;;;;;;;4334047;33;20058;-68
2023/06/16 06:18:20;;;;;;;12.90;5.57;;;;;;;;;;4333978;33;20072;-69
2023/06/16 06:20:45;;;;;;;15.03;6.27;;;;;;;;;;4330998;33;20170;-68
2023/06/16 06:23:11;;;;;;;11.23;7.18;;;;;;;;;;4332747;33;20129;-69
2023/06/16 06:25:36;;;;;;;8.95;5.60;;;;;;;;;;4338932;33;20077;-68
2023/06/16 06:28:02;;;;;;;8.80;6.07;;;;;;;;;;4350788;33;20430;-68
2023/06/16 06:30:28;;;;;;;9.75;6.53;;;;;;;;;;4347713;32;20110;-68
2023/06/16 06:32:53;;;;;;;7.30;6.37;;;;;;;;;;4346852;32;20031;-68
2023/06/16 06:35:19;;;;;;;6.62;5.93;;;;;;;;;;4348439;32;20058;-69
2023/06/16 06:37:44;;;;;;;11.30;5.57;;;;;;;;;;4346444;32;20082;-69
2023/06/16 06:40:09;;;;;;;8.60;5.72;;;;;;;;;;4347540;33;20099;-68
2023/06/16 06:42:35;;;;;;;11.52;6.07;;;;;;;;;;4346934;32;20039;-68
2023/06/16 06:45:01;;;;;;;16.95;6.47;;;;;;;;;;4348404;32;20078;-69
2023/06/16 06:47:26;;;;;;;9.55;6.47;;;;;;;;;;4345547;33;20374;-69
2023/06/16 06:49:52;;;;;;;11.10;6.10;;;;;;;;;;4346232;33;20032;-69
2023/06/16 06:52:18;;;;;;;8.10;5.80;;;;;;;;;;4346700;33;20085;-68
2023/06/16 06:54:43;;;;;;;10.20;5.90;;;;;;;;;;4348437;33;20028;-69
2023/06/16 06:57:08;;;;;;;12.57;6.37;;;;;;;;;;4347622;33;20036;-69
2023/06/16 06:59:34;;;;;;;10.03;5.93;;;;;;;;;;4348364;32;20031;-68
2023/06/16 07:01:59;;;;;;;9.90;6.25;;;;;;;;;;4347735;33;20128;-68
2023/06/16 07:04:25;;;;;;;7.35;6.22;;;;;;;;;;4346700;32;20095;-69
2023/06/16 07:06:50;;;;;;;9.50;5.68;;;;;;;;;;4346372;32;20031;-68
2023/06/16 07:09:16;;;;;;;13.25;6.43;;;;;;;;;;4346783;32;20063;-69
2023/06/16 07:11:41;;;;;;;11.65;6.00;;;;;;;;;;4346424;32;20058;-69
2023/06/16 07:14:06;;;;;;;9.77;6.07;;;;;;;;;;4346393;32;20424;-69
2023/06/16 07:16:31;;;;;;;11.82;5.72;;;;;;;;;;4344924;33;20031;-69
2023/06/16 07:18:56;;;;;;;9.50;6.10;;;;;;;;;;4344920;33;20082;-69
2023/06/16 07:21:22;;;;;;;8.20;6.35;;;;;;;;;;4347704;32;20052;-69
2023/06/16 07:23:47;;;;;;;9.05;5.82;;;;;;;;;;4346119;32;20031;-69
2023/06/16 07:26:12;;;;;;;12.33;5.83;;;;;;;;;;4345981;32;20102;-70
2023/06/16 07:28:37;;;;;;;8.03;4.97;;;;;;;;;;4345630;33;20486;-68
2023/06/16 07:31:03;;;;;;;6.87;4.53;;;;;;;;;;4356335;32;20194;-68
2023/06/16 07:33:28;;;;;;;9.88;5.15;;;;;;;;;;4346617;32;20061;-69
2023/06/16 07:35:53;;;;;;;15.25;5.20;;;;;;;;;;4345522;33;20110;-69
2023/06/16 07:38:18;;;;;;;6.37;4.55;;;;;;;;;;4346387;33;20040;-70
2023/06/16 07:40:43;;;;;;;6.55;4.50;;;;;;;;;;4347573;33;20056;-69
2023/06/16 07:43:09;;;;;;;9.30;3.80;;;;;;;;;;4345967;33;20410;-70
2023/06/16 07:45:35;;;;;;;8.93;4.80;;;;;;;;;;4344574;33;20110;-68
2023/06/16 07:48:00;;;;;;;5.95;3.97;;;;;;;;;;4346752;32;20142;-68
2023/06/16 07:50:25;;;;;;;7.40;4.22;;;;;;;;;;4346775;33;20039;-68
2023/06/16 07:52:51;;;;;;;7.50;4.17;;;;;;;;;;4344921;33;20085;-68
2023/06/16 07:55:16;;;;;;;11.25;4.53;;;;;;;;;;4347534;33;20584;-68
2023/06/16 07:57:41;;;;;;;5.80;4.03;;;;;;;;;;4346281;32;20032;-68
2023/06/16 08:00:08;;;;;;;7.00;4.20;;;;;;;;;;4346363;33;20066;-68
2023/06/16 08:02:34;;;;;;;6.57;3.33;;;;;;;;;;4345669;33;20471;-69
2023/06/16 08:04:59;;;;;;;8.93;3.62;;;;;;;;;;4345421;33;20023;-68
2023/06/16 08:07:25;;;;;;;10.23;3.95;;;;;;;;;;4347328;32;20409;-68
2023/06/16 08:09:50;;;;;;;8.18;3.72;;;;;;;;;;4345867;33;20186;-68
2023/06/16 08:12:15;;;;;;;8.95;3.78;;;;;;;;;;4345660;33;20028;-69
2023/06/16 08:14:40;;;;;;;7.95;3.58;;;;;;;;;;4346415;33;20137;-69
2023/06/16 08:17:05;;;;;;;6.00;3.97;;;;;;;;;;4344052;33;20422;-69
2023/06/16 08:19:31;;;;;;;14.65;4.80;;;;;;;;;;4346196;33;20082;-68
2023/06/16 08:21:56;;;;;;;6.10;3.50;;;;;;;;;;4349805;33;20089;-68
2023/06/16 08:24:21;;;;;;;6.17;3.23;;;;;;;;;;4357433;32;20256;-69
2023/06/16 08:26:46;;;;;;;7.60;4.10;;;;;;;;;;4345689;33;20175;-68
2023/06/16 08:29:12;;;;;;;8.90;3.97;;;;;;;;;;4345336;33;20195;-67
2023/06/16 08:31:38;;;;;;;10.13;4.65;;;;;;;;;;4347008;33;20031;-68
2023/06/16 08:34:03;;;;;;;5.87;4.07;;;;;;;;;;4345309;32;20027;-69
2023/06/16 08:36:28;;;;;;;6.57;3.90;;;;;;;;;;4344707;33;20195;-69
2023/06/16 08:38:53;;;;;;;6.40;4.35;;;;;;;;;;4345881;33;20376;-68
2023/06/16 08:41:18;;;;;;;5.20;3.78;;;;;;;;;;4345825;32;20374;-69
2023/06/16 08:43:48;;;;;;;5.18;3.50;;;;;;;;;;4334062;33;20051;-74
2023/06/16 08:46:13;;;;;;;7.93;4.47;;;;;;;;;;4330434;33;20069;-68
2023/06/16 08:48:39;;;;;;;21.92;4.75;;;;;;;;;;4330897;33;20387;-70
2023/06/16 08:51:04;;;;;;;6.87;3.55;;;;;;;;;;4333699;33;20044;-70
2023/06/16 08:53:33;;;;;;;5.80;3.67;;;;;;;;;;4345109;33;20429;-70
2023/06/16 08:56:00;;;;;;;11.12;4.40;;;;;;;;;;4345853;33;20361;-70
2023/06/16 08:58:27;;;;;;;6.90;4.00;;;;;;;;;;4343808;33;20353;-70
2023/06/16 09:00:52;;;;;;;9.23;4.00;;;;;;;;;;4343968;33;20062;-69
2023/06/16 09:03:19;;;;;;;4.95;3.47;;;;;;;;;;4346111;33;20090;-70
2023/06/16 09:05:45;;;;;;;4.53;3.78;;;;;;;;;;4343866;33;20028;-74
2023/06/16 09:08:11;;;;;;;5.30;3.47;;;;;;;;;;4343635;33;20459;-69
2023/06/16 09:10:36;;;;;;;5.22;3.47;;;;;;;;;;4345439;33;20100;-70
2023/06/16 09:13:02;;;;;;;9.77;4.12;;;;;;;;;;4344577;33;20031;-69
2023/06/16 09:15:27;;;;;;;4.68;3.53;;;;;;;;;;4345639;33;20058;-68
2023/06/16 09:17:56;;;;;;;8.95;3.90;;;;;;;;;;4344820;33;20369;-69
2023/06/16 09:20:23;;;;;;;4.18;3.35;;;;;;;;;;4344076;33;20119;-68
2023/06/16 09:22:55;;;;;;;7.18;3.37;;;;;;;;;;4344553;33;20154;-68
2023/06/16 09:25:21;;;;;;;5.30;3.37;;;;;;;;;;4343625;33;20036;-68
2023/06/16 09:27:49;;;;;;;8.27;3.47;;;;;;;;;;4345211;33;20086;-68
2023/06/16 09:30:16;;;;;;;5.93;3.30;;;;;;;;;;4344697;33;20066;-69
2023/06/16 09:32:41;;;;;;;8.50;3.45;;;;;;;;;;4345277;33;20063;-68
2023/06/16 09:35:20;;;;;;;7.32;3.35;;;;;;;;;;4344447;33;20083;-68
2023/06/16 09:37:45;;;;;;;5.28;2.97;;;;;;;;;;4353010;33;20058;-69
2023/06/16 09:40:11;;;;;;;4.68;3.70;;;;;;;;;;4359574;33;20496;-69
2023/06/16 09:42:40;;;;;;;7.07;3.45;;;;;;;;;;4357870;32;20459;-69
2023/06/16 09:45:09;;;;;;;4.65;3.50;;;;;;;;;;4333496;33;20032;-70
2023/06/16 09:47:38;;;;;;;7.22;3.42;;;;;;;;;;4354421;33;20035;-69
2023/06/16 09:50:06;;;;;;;12.57;3.60;;;;;;;;;;4359522;32;20086;-70
2023/06/16 09:52:33;;;;;;;7.53;3.60;;;;;;;;;;4359034;32;20109;-70
2023/06/16 09:54:58;;;;;;;6.90;3.50;;;;;;;;;;4358124;32;20081;-73
2023/06/16 09:57:23;;;;;;;6.32;3.78;;;;;;;;;;4345905;33;20028;-69
2023/06/16 09:59:48;;;;;;;5.15;3.78;;;;;;;;;;4344604;33;20398;-70
2023/06/16 10:02:14;;;;;;;4.97;3.60;;;;;;;;;;4347074;33;20028;-67
2023/06/16 10:04:40;;;;;;;5.28;3.60;;;;;;;;;;4346765;33;20039;-69
2023/06/16 10:07:06;;;;;;;5.78;3.92;;;;;;;;;;4345750;33;20065;-69
2023/06/16 10:09:33;;;;;;;5.05;3.25;;;;;;;;;;4344461;33;20067;-69
2023/06/16 10:11:59;;;;;;;6.40;3.50;;;;;;;;;;4346390;33;20035;-69
2023/06/16 10:14:25;;;;;;;4.87;3.87;;;;;;;;;;4346189;33;20417;-69
2023/06/16 10:16:52;;;;;;;7.50;4.37;;;;;;;;;;4347288;33;20160;-70
2023/06/16 10:19:20;;;;;;;4.95;3.50;;;;;;;;;;4353184;32;20377;-69
2023/06/16 10:21:45;;;;;;;5.95;3.53;;;;;;;;;;4346406;33;20044;-69
2023/06/16 10:24:10;;;;;;;5.40;3.65;;;;;;;;;;4345778;33;20492;-68
2023/06/16 10:26:36;;;;;;;4.25;2.85;;;;;;;;;;4355827;32;20074;-69
2023/06/16 10:29:02;;;;;;;7.07;3.78;;;;;;;;;;4347300;32;20117;-70
2023/06/16 10:31:28;;;;;;;5.57;3.58;;;;;;;;;;4346301;32;20069;-69
2023/06/16 10:33:54;;;;;;;6.30;3.42;;;;;;;;;;4331828;33;20587;-69
2023/06/16 10:36:31;;;;;;;4.00;3.35;;;;;;;;;;4343139;33;20035;-69
2023/06/16 10:38:57;;;;;;;4.20;3.10;;;;;;;;;;4347142;33;20091;-70
2023/06/16 10:41:22;;;;;;;5.37;3.50;;;;;;;;;;4344080;33;20492;-70
2023/06/16 10:43:47;;;;;;;10.20;3.55;;;;;;;;;;4340813;32;20052;-70
2023/06/16 10:46:13;;;;;;;3.92;3.33;;;;;;;;;;4345487;32;20058;-70
2023/06/16 10:48:57;;;;;;;8.90;3.50;;;;;;;;;;4341203;33;20043;-70
2023/06/16 10:51:44;;;;;;;6.80;3.00;;;;;;;;;;4346890;33;20448;-70
2023/06/16 10:54:10;;;;;;;5.22;3.30;;;;;;;;;;4360867;32;20077;-68
2023/06/16 10:56:54;;;;;;;4.95;3.47;;;;;;;;;;4362375;32;20441;-70
2023/06/16 10:59:19;;;;;;;3.55;3.12;;;;;;;;;;4349836;32;20063;-69
2023/06/16 11:01:46;;;;;;;4.40;3.00;;;;;;;;;;4345380;32;20142;-69
2023/06/16 11:04:14;;;;;;;4.70;3.30;;;;;;;;;;4345065;33;20574;-71
2023/06/16 11:06:58;;;;;;;6.87;3.47;;;;;;;;;;4345463;33;20056;-70
2023/06/16 11:09:26;;;;;;;6.65;3.30;;;;;;;;;;4345596;33;20107;-72
2023/06/16 11:11:52;;;;;;;4.55;3.50;;;;;;;;;;4346194;33;20059;-69
2023/06/16 11:14:17;;;;;;;6.25;3.42;;;;;;;;;;4345328;33;20061;-69
2023/06/16 11:16:44;;;;;;;6.68;3.45;;;;;;;;;;4346809;33;20067;-69
2023/06/16 11:19:09;;;;;;;10.60;3.70;;;;;;;;;;4345819;33;20492;-70
2023/06/16 11:21:34;;;;;;;5.10;3.20;;;;;;;;;;4345943;33;20028;-69
2023/06/16 11:24:09;;;;;;;7.40;3.37;;;;;;;;;;4345608;32;20147;-70
2023/06/16 11:26:34;;;;;;;4.12;3.20;;;;;;;;;;4343937;33;20168;-70
2023/06/16 11:28:59;;;;;;;7.32;3.90;;;;;;;;;;4345984;33;20086;-69
2023/06/16 11:31:25;;;;;;;7.10;3.75;;;;;;;;;;4344723;33;20493;-69
2023/06/16 11:33:53;;;;;;;4.55;3.37;;;;;;;;;;4345284;33;20028;-69
2023/06/16 11:36:20;;;;;;;7.82;3.50;;;;;;;;;;4345288;32;20039;-69
2023/06/16 11:38:46;;;;;;;6.75;4.43;;;;;;;;;;4346185;33;20168;-70
2023/06/16 11:41:15;;;;;;;4.80;3.55;;;;;;;;;;4345765;33;20095;-69
2023/06/16 11:43:41;;;;;;;5.20;3.33;;;;;;;;;;4349154;33;20111;-69
2023/06/16 11:46:06;;;;;;;5.95;3.12;;;;;;;;;;4340668;33;20102;-71
2023/06/16 11:48:31;;;;;;;7.50;3.50;;;;;;;;;;4345643;33;20066;-70
2023/06/16 11:50:57;;;;;;;7.57;3.28;;;;;;;;;;4358009;32;20103;-68
2023/06/16 11:53:22;;;;;;;6.32;3.60;;;;;;;;;;4345447;32;20323;-70
2023/06/16 11:55:49;;;;;;;8.35;3.72;;;;;;;;;;4344782;33;20031;-70
2023/06/16 11:58:14;;;;;;;5.37;3.47;;;;;;;;;;4344925;33;20062;-70
2023/06/16 12:00:39;;;;;;;4.80;3.70;;;;;;;;;;4338543;33;20107;-70
2023/06/16 12:03:05;;;;;;;5.28;3.87;;;;;;;;;;4343182;33;20032;-70
2023/06/16 12:05:30;;;;;;;7.37;3.40;;;;;;;;;;4345623;33;20031;-71
2023/06/16 12:07:56;;;;;;;3.83;3.17;;;;;;;;;;4337930;33;20048;-72
2023/06/16 12:10:24;;;;;;;4.22;3.83;;;;;;;;;;4346732;33;20449;-71
2023/06/16 12:12:50;;;;;;;8.32;4.00;;;;;;;;;;4342745;33;20464;-69
2023/06/16 12:15:16;;;;;;;6.00;3.90;;;;;;;;;;4345582;33;20032;-70
2023/06/16 12:17:41;;;;;;;9.30;3.75;;;;;;;;;;4335348;33;20060;-70
2023/06/16 12:20:09;;;;;;;8.75;3.75;;;;;;;;;;4343474;33;20036;-71
2023/06/16 12:22:35;;;;;;;7.50;3.45;;;;;;;;;;4345509;33;20442;-72
2023/06/16 12:25:00;;;;;;;6.93;3.42;;;;;;;;;;4344321;33;20043;-71
2023/06/16 12:27:25;;;;;;;5.85;3.60;;;;;;;;;;4344865;33;20072;-72
2023/06/16 12:29:57;;;;;;;5.35;3.70;;;;;;;;;;4344419;33;20515;-71
2023/06/16 12:32:28;;;;;;;4.78;3.50;;;;;;;;;;4346425;33;20067;-71
2023/06/16 12:34:53;;;;;;;4.25;3.22;;;;;;;;;;4344586;33;20040;-70
2023/06/16 12:37:18;;;;;;;5.33;3.33;;;;;;;;;;4345340;32;20062;-70
2023/06/16 12:39:54;;;;;;;3.67;3.20;;;;;;;;;;4345418;32;20132;-70
2023/06/16 12:42:25;;;;;;;8.48;3.45;;;;;;;;;;4345381;33;20456;-70
2023/06/16 12:44:51;;;;;;;6.90;3.20;;;;;;;;;;4346505;33;20061;-69
2023/06/16 12:47:17;;;;;;;5.68;3.30;;;;;;;;;;4344717;33;20544;-70
2023/06/16 12:49:42;;;;;;;7.93;3.47;;;;;;;;;;4345911;33;20036;-70
2023/06/16 12:52:08;;;;;;;7.78;3.70;;;;;;;;;;4345761;33;20027;-70
2023/06/16 12:54:34;;;;;;;7.53;3.65;;;;;;;;;;4338863;32;20051;-70
2023/06/16 12:57:00;;;;;;;10.32;3.90;;;;;;;;;;4330619;33;20370;-71
2023/06/16 12:59:25;;;;;;;6.40;3.85;;;;;;;;;;4329837;33;20389;-70
2023/06/16 13:01:50;;;;;;;8.77;3.75;;;;;;;;;;4330067;33;20036;-72
2023/06/16 13:04:15;;;;;;;6.50;3.80;;;;;;;;;;4329728;33;20095;-69
2023/06/16 13:06:41;;;;;;;5.62;3.60;;;;;;;;;;4330224;33;20242;-70
2023/06/16 13:09:06;;;;;;;6.90;3.47;;;;;;;;;;4331086;33;20032;-70
2023/06/16 13:11:32;;;;;;;7.50;4.03;;;;;;;;;;4330150;33;20164;-70
2023/06/16 13:13:57;;;;;;;5.82;3.58;;;;;;;;;;4330059;33;20162;-70
2023/06/16 13:16:22;;;;;;;4.97;3.53;;;;;;;;;;4331254;33;20032;-70
2023/06/16 13:18:47;;;;;;;6.95;3.12;;;;;;;;;;4332467;33;20471;-69
2023/06/16 13:21:13;;;;;;;5.50;2.93;;;;;;;;;;4346463;33;20044;-69
2023/06/16 13:23:43;;;;;;;8.32;3.75;;;;;;;;;;4343575;33;20036;-71
2023/06/16 13:26:13;;;;;;;8.40;3.45;;;;;;;;;;4344465;33;20036;-72
2023/06/16 13:28:40;;;;;;;4.30;3.20;;;;;;;;;;4343539;33;20045;-68
2023/06/16 13:31:07;;;;;;;5.72;3.25;;;;;;;;;;4344639;33;20414;-69
2023/06/16 13:33:33;;;;;;;6.93;3.03;;;;;;;;;;4344390;33;20121;-70
2023/06/16 13:35:59;;;;;;;9.35;3.45;;;;;;;;;;4344318;33;20086;-69
2023/06/16 13:38:24;;;;;;;4.45;3.17;;;;;;;;;;4344240;33;20027;-69
2023/06/16 13:40:49;;;;;;;4.97;3.25;;;;;;;;;;4344160;33;20111;-68
2023/06/16 13:43:14;;;;;;;5.85;3.55;;;;;;;;;;4345858;33;20213;-69
2023/06/16 13:45:40;;;;;;;6.20;3.17;;;;;;;;;;4331805;33;20054;-69
2023/06/16 13:48:05;;;;;;;7.82;3.65;;;;;;;;;;4336931;33;20155;-69
2023/06/16 13:50:30;;;;;;;9.02;3.55;;;;;;;;;;4347828;33;20058;-69
2023/06/16 13:52:56;;;;;;;4.90;3.47;;;;;;;;;;4347516;33;20086;-69
2023/06/16 13:55:22;;;;;;;9.25;3.20;;;;;;;;;;4346074;33;20059;-68
2023/06/16 13:57:47;;;;;;;6.25;3.28;;;;;;;;;;4347445;33;20077;-68
2023/06/16 14:00:12;;;;;;;3.87;2.90;;;;;;;;;;4347285;33;20123;-68
2023/06/16 14:02:37;;;;;;;4.15;3.20;;;;;;;;;;4348341;33;20124;-69
2023/06/16 14:05:03;;;;;;;5.80;3.40;;;;;;;;;;4346972;33;20058;-69
2023/06/16 14:07:28;;;;;;;7.15;3.80;;;;;;;;;;4347351;33;20466;-69
2023/06/16 14:09:53;;;;;;;6.87;4.17;;;;;;;;;;4348129;33;20032;-69
2023/06/16 14:12:18;;;;;;;4.37;3.30;;;;;;;;;;4348251;33;20132;-68
2023/06/16 14:14:43;;;;;;;4.75;3.05;;;;;;;;;;4346925;33;20145;-69
2023/06/16 14:17:09;;;;;;;4.23;3.43;;;;;;;;;;4347304;33;20031;-69
2023/06/16 14:19:34;;;;;;;8.00;4.32;;;;;;;;;;4345558;33;20139;-69
2023/06/16 14:21:59;;;;;;;6.63;3.33;;;;;;;;;;4348202;33;20112;-67
2023/06/16 14:24:24;;;;;;;6.78;3.25;;;;;;;;;;4346316;33;20419;-69
2023/06/16 14:26:50;;;;;;;6.13;3.23;;;;;;;;;;4347186;33;20083;-69
2023/06/16 14:29:15;;;;;;;6.22;3.28;;;;;;;;;;4347201;33;20028;-68
2023/06/16 14:31:40;;;;;;;6.68;3.10;;;;;;;;;;4348142;33;20036;-69
2023/06/16 14:34:06;;;;;;;6.77;3.97;;;;;;;;;;4348606;32;20094;-68